sensor_id;sensor_type;location;lat;lon;timestamp;pressure;altitude;pressure_sealevel;temperature;humidity
26775;BME280;14362;51.902;7.626;2023-03-20T00:02:44;101262.91;;;9.38;100.00
26775;BME280;14362;51.902;7.626;2023-03-20T00:06:46;101262.63;;;9.39;100.00
26775;BME280;14362;51.902;7.626;2023-03-20T00:10:47;101274.81;;;9.43;100.00
26775;BME280;14362;51.902;7.626;2023-03-20T00:14:50;101272.22;;;9.47;100.00
26775;BME280;14362;51.902;7.626;2023-03-20T00:18:52;101263.56;;;9.48;100.00
26775;BME280;14362;51.902;7.626;2023-03-20T00:22:55;101261.00;;;9.52;100.00
26775;BME280;14362;51.902;7.626;2023-03-20T00:26:56;101272.97;;;9.52;100.00
26775;BME280;14362;51.902;7.626;2023-03-20T00:30:59;101264.22;;;9.59;100.00
26775;BME280;14362;51.902;7.626;2023-03-20T00:35:14;101263.47;;;9.53;100.00
26775;BME280;14362;51.902;7.626;2023-03-20T00:39:17;101266.25;;;9.53;100.00
26775;BME280;14362;51.902;7.626;2023-03-20T00:43:19;101268.13;;;9.58;100.00
26775;BME280;14362;51.902;7.626;2023-03-20T00:47:22;101262.28;;;9.59;100.00
26775;BME280;14362;51.902;7.626;2023-03-20T00:51:24;101252.78;;;9.60;100.00
26775;BME280;14362;51.902;7.626;2023-03-20T00:55:27;101248.03;;;9.61;100.00
26775;BME280;14362;51.902;7.626;2023-03-20T00:59:32;101250.75;;;9.66;100.00
26775;BME280;14362;51.902;7.626;2023-03-20T01:03:36;101241.88;;;9.64;100.00
26775;BME280;14362;51.902;7.626;2023-03-20T01:07:38;101247.75;;;9.62;100.00
26775;BME280;14362;51.902;7.626;2023-03-20T01:11:41;101247.44;;;9.64;100.00
26775;BME280;14362;51.902;7.626;2023-03-20T01:15:45;101243.53;;;9.65;100.00
26775;BME280;14362;51.902;7.626;2023-03-20T01:19:48;101246.59;;;9.63;100.00
26775;BME280;14362;51.902;7.626;2023-03-20T01:23:49;101256.09;;;9.62;100.00
26775;BME280;14362;51.902;7.626;2023-03-20T01:27:52;101266.72;;;9.60;100.00
26775;BME280;14362;51.902;7.626;2023-03-20T01:31:55;101264.63;;;9.52;100.00
26775;BME280;14362;51.902;7.626;2023-03-20T01:35:57;101274.81;;;9.43;100.00
26775;BME280;14362;51.902;7.626;2023-03-20T01:39:59;101285.94;;;9.43;100.00
26775;BME280;14362;51.902;7.626;2023-03-20T01:44:12;101293.81;;;9.36;100.00
26775;BME280;14362;51.902;7.626;2023-03-20T01:48:17;101294.34;;;9.38;100.00
26775;BME280;14362;51.902;7.626;2023-03-20T01:52:20;101296.00;;;9.39;100.00
26775;BME280;14362;51.902;7.626;2023-03-20T01:56:22;101307.53;;;9.33;100.00
26775;BME280;14362;51.902;7.626;2023-03-20T02:00:24;101293.50;;;9.38;100.00
26775;BME280;14362;51.902;7.626;2023-03-20T02:04:30;101291.03;;;9.36;100.00
26775;BME280;14362;51.902;7.626;2023-03-20T02:08:40;101290.19;;;9.36;100.00
26775;BME280;14362;51.902;7.626;2023-03-20T02:12:42;101281.50;;;9.42;100.00
26775;BME280;14362;51.902;7.626;2023-03-20T02:16:44;101283.28;;;9.33;100.00
26775;BME280;14362;51.902;7.626;2023-03-20T02:21:01;101273.09;;;9.29;100.00
26775;BME280;14362;51.902;7.626;2023-03-20T02:34:45;101304.53;;;9.11;100.00
26775;BME280;14362;51.902;7.626;2023-03-20T02:39:26;101311.66;;;9.17;100.00
26775;BME280;14362;51.902;7.626;2023-03-20T02:43:40;101304.22;;;9.13;100.00
26775;BME280;14362;51.902;7.626;2023-03-20T02:47:48;101303.53;;;9.20;100.00
26775;BME280;14362;51.902;7.626;2023-03-20T02:51:56;101296.41;;;9.14;100.00
26775;BME280;14362;51.902;7.626;2023-03-20T02:56:04;101292.19;;;9.17;100.00
26775;BME280;14362;51.902;7.626;2023-03-20T03:00:13;101304.81;;;9.10;100.00
26775;BME280;14362;51.902;7.626;2023-03-20T03:04:20;101296.78;;;9.08;100.00
26775;BME280;14362;51.902;7.626;2023-03-20T03:08:27;101295.13;;;9.07;100.00
26775;BME280;14362;51.902;7.626;2023-03-20T03:12:34;101296.78;;;9.08;100.00
26775;BME280;14362;51.902;7.626;2023-03-20T03:16:37;101303.47;;;9.07;100.00
26775;BME280;14362;51.902;7.626;2023-03-20T03:20:41;101293.78;;;9.05;100.00
26775;BME280;14362;51.902;7.626;2023-03-20T03:24:45;101297.38;;;9.05;100.00
26775;BME280;14362;51.902;7.626;2023-03-20T03:28:49;101279.34;;;9.03;100.00
26775;BME280;14362;51.902;7.626;2023-03-20T03:33:11;101272.34;;;9.05;100.00
26775;BME280;14362;51.902;7.626;2023-03-20T03:37:20;101271.28;;;9.01;100.00
26775;BME280;14362;51.902;7.626;2023-03-20T03:41:28;101254.09;;;8.99;100.00
26775;BME280;14362;51.902;7.626;2023-03-20T03:45:36;101239.66;;;8.97;100.00
26775;BME280;14362;51.902;7.626;2023-03-20T03:49:42;101255.00;;;8.95;100.00
26775;BME280;14362;51.902;7.626;2023-03-20T03:53:49;101248.84;;;8.98;100.00
26775;BME280;14362;51.902;7.626;2023-03-20T03:57:56;101241.63;;;8.97;100.00
26775;BME280;14362;51.902;7.626;2023-03-20T04:02:00;101243.88;;;8.95;100.00
26775;BME280;14362;51.902;7.626;2023-03-20T04:06:03;101243.06;;;8.94;100.00
26775;BME280;14362;51.902;7.626;2023-03-20T04:10:06;101246.66;;;8.95;100.00
26775;BME280;14362;51.902;7.626;2023-03-20T04:14:08;101248.38;;;8.91;100.00
26775;BME280;14362;51.902;7.626;2023-03-20T04:18:14;101250.56;;;8.94;100.00
26775;BME280;14362;51.902;7.626;2023-03-20T04:22:16;101261.69;;;8.94;100.00
26775;BME280;14362;51.902;7.626;2023-03-20T04:26:18;101250.63;;;8.89;100.00
26775;BME280;14362;51.902;7.626;2023-03-20T04:30:20;101243.41;;;8.88;100.00
26775;BME280;14362;51.902;7.626;2023-03-20T04:34:23;101247.94;;;8.84;100.00
26775;BME280;14362;51.902;7.626;2023-03-20T04:38:25;101237.63;;;8.84;100.00
26775;BME280;14362;51.902;7.626;2023-03-20T04:42:27;101234.03;;;8.84;100.00
26775;BME280;14362;51.902;7.626;2023-03-20T04:46:28;101235.44;;;8.81;100.00
26775;BME280;14362;51.902;7.626;2023-03-20T04:50:31;101238.63;;;8.75;100.00
26775;BME280;14362;51.902;7.626;2023-03-20T04:54:33;101234.44;;;8.77;100.00
26775;BME280;14362;51.902;7.626;2023-03-20T04:58:34;101237.50;;;8.76;100.00
26775;BME280;14362;51.902;7.626;2023-03-20T05:02:36;101245.22;;;8.79;100.00
26775;BME280;14362;51.902;7.626;2023-03-20T05:06:39;101243.38;;;8.74;100.00
26775;BME280;14362;51.902;7.626;2023-03-20T05:10:40;101249.19;;;8.73;100.00
26775;BME280;14362;51.902;7.626;2023-03-20T05:14:41;101242.50;;;8.74;100.00
26775;BME280;14362;51.902;7.626;2023-03-20T05:18:43;101234.78;;;8.71;100.00
26775;BME280;14362;51.902;7.626;2023-03-20T05:22:48;101232.63;;;8.68;100.00
26775;BME280;14362;51.902;7.626;2023-03-20T05:26:50;101236.53;;;8.67;100.00
26775;BME280;14362;51.902;7.626;2023-03-20T05:30:52;101242.09;;;8.67;100.00
26775;BME280;14362;51.902;7.626;2023-03-20T05:34:53;101240.44;;;8.66;100.00
26775;BME280;14362;51.902;7.626;2023-03-20T05:38:56;101241.03;;;8.63;100.00
26775;BME280;14362;51.902;7.626;2023-03-20T05:42:58;101243.22;;;8.66;100.00
26775;BME280;14362;51.902;7.626;2023-03-20T05:46:59;101241.56;;;8.65;100.00
26775;BME280;14362;51.902;7.626;2023-03-20T05:51:00;101256.31;;;8.60;100.00
26775;BME280;14362;51.902;7.626;2023-03-20T05:55:04;101259.56;;;8.67;100.00
26775;BME280;14362;51.902;7.626;2023-03-20T05:59:05;101255.44;;;8.65;100.00
26775;BME280;14362;51.902;7.626;2023-03-20T06:03:07;101254.59;;;8.64;100.00
26775;BME280;14362;51.902;7.626;2023-03-20T06:07:08;101248.25;;;8.64;100.00
26775;BME280;14362;51.902;7.626;2023-03-20T06:11:11;101248.81;;;8.61;100.00
26775;BME280;14362;51.902;7.626;2023-03-20T06:15:12;101268.88;;;8.58;100.00
26775;BME280;14362;51.902;7.626;2023-03-20T06:19:14;101259.34;;;8.64;100.00
26775;BME280;14362;51.902;7.626;2023-03-20T06:23:15;101265.50;;;8.61;100.00
26775;BME280;14362;51.902;7.626;2023-03-20T06:27:18;101259.94;;;8.61;100.00
26775;BME280;14362;51.902;7.626;2023-03-20T06:31:20;101276.09;;;8.59;100.00
26775;BME280;14362;51.902;7.626;2023-03-20T06:35:21;101279.44;;;8.56;100.00
26775;BME280;14362;51.902;7.626;2023-03-20T06:39:22;101271.97;;;8.56;100.00
26775;BME280;14362;51.902;7.626;2023-03-20T06:43:25;101272.78;;;8.57;100.00
26775;BME280;14362;51.902;7.626;2023-03-20T06:47:27;101276.97;;;8.54;100.00
26775;BME280;14362;51.902;7.626;2023-03-20T06:51:28;101274.22;;;8.54;100.00
26775;BME280;14362;51.902;7.626;2023-03-20T06:55:29;101288.91;;;8.55;100.00
26775;BME280;14362;51.902;7.626;2023-03-20T06:59:32;101280.56;;;8.55;100.00
26775;BME280;14362;51.902;7.626;2023-03-20T07:03:33;101292.53;;;8.55;100.00
26775;BME280;14362;51.902;7.626;2023-03-20T07:07:35;101297.19;;;8.60;100.00
26775;BME280;14362;51.902;7.626;2023-03-20T07:11:37;101304.09;;;8.62;100.00
26775;BME280;14362;51.902;7.626;2023-03-20T07:15:40;101312.38;;;8.67;100.00
26775;BME280;14362;51.902;7.626;2023-03-20T07:19:41;101315.53;;;8.79;100.00
26775;BME280;14362;51.902;7.626;2023-03-20T07:23:42;101313.22;;;8.86;100.00
26775;BME280;14362;51.902;7.626;2023-03-20T07:27:44;101309.53;;;8.91;100.00
26775;BME280;14362;51.902;7.626;2023-03-20T07:31:51;101313.69;;;8.93;100.00
26775;BME280;14362;51.902;7.626;2023-03-20T07:35:53;101308.72;;;8.90;100.00
26775;BME280;14362;51.902;7.626;2023-03-20T07:39:55;101308.03;;;8.98;100.00
26775;BME280;14362;51.902;7.626;2023-03-20T07:43:56;101314.72;;;8.97;100.00
26775;BME280;14362;51.902;7.626;2023-03-20T07:47:59;101313.75;;;9.07;100.00
26775;BME280;14362;51.902;7.626;2023-03-20T07:52:00;101317.06;;;9.09;100.00
26775;BME280;14362;51.902;7.626;2023-03-20T07:56:02;101315.41;;;9.08;100.00
26775;BME280;14362;51.902;7.626;2023-03-20T08:00:04;101314.22;;;9.13;100.00
26775;BME280;14362;51.902;7.626;2023-03-20T08:04:08;101312.28;;;9.14;100.00
26775;BME280;14362;51.902;7.626;2023-03-20T08:08:09;101306.84;;;9.22;100.00
26775;BME280;14362;51.902;7.626;2023-03-20T08:12:11;101322.84;;;9.30;100.00
26775;BME280;14362;51.902;7.626;2023-03-20T08:16:12;101319.22;;;9.48;100.00
26775;BME280;14362;51.902;7.626;2023-03-20T08:20:15;101322.69;;;9.40;100.00
26775;BME280;14362;51.902;7.626;2023-03-20T08:24:17;101322.53;;;9.50;100.00
26775;BME280;14362;51.902;7.626;2023-03-20T08:28:19;101321.53;;;9.60;100.00
26775;BME280;14362;51.902;7.626;2023-03-20T08:32:21;101323.31;;;9.69;100.00
26775;BME280;14362;51.902;7.626;2023-03-20T08:36:24;101320.44;;;9.74;100.00
26775;BME280;14362;51.902;7.626;2023-03-20T08:40:25;101321.09;;;9.85;100.00
26775;BME280;14362;51.902;7.626;2023-03-20T08:44:26;101317.50;;;9.98;100.00
26775;BME280;14362;51.902;7.626;2023-03-20T08:48:28;101320.28;;;10.16;100.00
26775;BME280;14362;51.902;7.626;2023-03-20T08:52:31;101315.94;;;10.23;100.00
26775;BME280;14362;51.902;7.626;2023-03-20T08:56:32;101314.59;;;10.34;100.00
26775;BME280;14362;51.902;7.626;2023-03-20T09:00:33;101316.97;;;10.41;100.00
26775;BME280;14362;51.902;7.626;2023-03-20T09:04:35;101315.72;;;10.07;100.00
26775;BME280;14362;51.902;7.626;2023-03-20T09:08:38;101317.28;;;10.26;100.00
26775;BME280;14362;51.902;7.626;2023-03-20T09:12:39;101315.34;;;10.26;100.00
26775;BME280;14362;51.902;7.626;2023-03-20T09:16:41;101321.09;;;10.30;100.00
26775;BME280;14362;51.902;7.626;2023-03-20T09:20:42;101319.34;;;10.47;100.00
26775;BME280;14362;51.902;7.626;2023-03-20T09:24:45;101322.25;;;10.56;100.00
26775;BME280;14362;51.902;7.626;2023-03-20T09:28:47;101321.81;;;10.76;100.00
26775;BME280;14362;51.902;7.626;2023-03-20T09:32:49;101337.41;;;10.77;100.00
26775;BME280;14362;51.902;7.626;2023-03-20T09:36:51;101325.53;;;10.85;100.00
26775;BME280;14362;51.902;7.626;2023-03-20T09:40:55;101325.53;;;10.85;100.00
26775;BME280;14362;51.902;7.626;2023-03-20T09:45:04;101328.66;;;10.70;100.00
26775;BME280;14362;51.902;7.626;2023-03-20T09:49:15;101345.16;;;10.93;100.00
26775;BME280;14362;51.902;7.626;2023-03-20T09:53:24;101337.31;;;10.82;100.00
26775;BME280;14362;51.902;7.626;2023-03-20T09:57:34;101334.13;;;10.75;100.00
26775;BME280;14362;51.902;7.626;2023-03-20T10:01:43;101332.97;;;10.76;100.00
26775;BME280;14362;51.902;7.626;2023-03-20T10:05:50;101326.75;;;10.92;100.00
26775;BME280;14362;51.902;7.626;2023-03-20T10:09:54;101339.38;;;10.90;100.00
26775;BME280;14362;51.902;7.626;2023-03-20T10:14:08;101337.41;;;10.90;100.00
26775;BME280;14362;51.902;7.626;2023-03-20T10:18:16;101327.91;;;10.91;100.00
26775;BME280;14362;51.902;7.626;2023-03-20T10:22:21;101331.09;;;10.85;100.00
26775;BME280;14362;51.902;7.626;2023-03-20T10:26:25;101329.03;;;10.77;100.00
26775;BME280;14362;51.902;7.626;2023-03-20T10:30:46;101308.47;;;10.86;100.00
26775;BME280;14362;51.902;7.626;2023-03-20T10:34:56;101311.41;;;10.81;100.00
26775;BME280;14362;51.902;7.626;2023-03-20T10:39:04;101308.97;;;11.02;100.00
26775;BME280;14362;51.902;7.626;2023-03-20T10:43:14;101298.31;;;11.04;100.00
26775;BME280;14362;51.902;7.626;2023-03-20T10:47:19;101302.06;;;10.99;100.00
26775;BME280;14362;51.902;7.626;2023-03-20T10:51:28;101292.00;;;11.12;100.00
26775;BME280;14362;51.902;7.626;2023-03-20T10:55:36;101288.09;;;11.34;100.00
26775;BME280;14362;51.902;7.626;2023-03-20T10:59:41;101280.91;;;11.42;100.00
26775;BME280;14362;51.902;7.626;2023-03-20T11:03:45;101289.13;;;11.38;100.00
26775;BME280;14362;51.902;7.626;2023-03-20T11:07:48;101292.38;;;11.18;100.00
26775;BME280;14362;51.902;7.626;2023-03-20T11:11:55;101289.94;;;11.17;100.00
26775;BME280;14362;51.902;7.626;2023-03-20T11:16:08;101286.88;;;11.27;100.00
26775;BME280;14362;51.902;7.626;2023-03-20T11:20:13;101272.41;;;11.25;100.00
26775;BME280;14362;51.902;7.626;2023-03-20T11:24:23;101273.50;;;11.37;100.00
26775;BME280;14362;51.902;7.626;2023-03-20T11:28:30;101272.69;;;11.37;99.65
26775;BME280;14362;51.902;7.626;2023-03-20T11:32:35;101269.75;;;11.42;99.48
26775;BME280;14362;51.902;7.626;2023-03-20T11:36:44;101260.72;;;11.58;97.75
26775;BME280;14362;51.902;7.626;2023-03-20T11:40:48;101262.91;;;11.48;98.89
26775;BME280;14362;51.902;7.626;2023-03-20T11:44:56;101255.47;;;11.57;98.70
26775;BME280;14362;51.902;7.626;2023-03-20T11:49:04;101258.16;;;11.70;96.92
26775;BME280;14362;51.902;7.626;2023-03-20T11:53:19;101257.47;;;11.65;94.54
26775;BME280;14362;51.902;7.626;2023-03-20T11:57:30;101262.88;;;11.61;96.03
26775;BME280;14362;51.902;7.626;2023-03-20T12:01:40;101265.34;;;11.63;97.63
26775;BME280;14362;51.902;7.626;2023-03-20T12:05:46;101267.84;;;11.64;99.14
26775;BME280;14362;51.902;7.626;2023-03-20T12:09:51;101256.78;;;11.59;97.70
26775;BME280;14362;51.902;7.626;2023-03-20T12:13:57;101258.31;;;11.65;98.73
26775;BME280;14362;51.902;7.626;2023-03-20T12:18:01;101254.28;;;11.80;96.48
26775;BME280;14362;51.902;7.626;2023-03-20T12:22:13;101246.09;;;11.83;98.74
26775;BME280;14362;51.902;7.626;2023-03-20T12:26:23;101252.81;;;11.82;94.31
26775;BME280;14362;51.902;7.626;2023-03-20T12:30:31;101256.03;;;11.67;93.47
26775;BME280;14362;51.902;7.626;2023-03-20T12:34:37;101247.16;;;11.65;95.43
26775;BME280;14362;51.902;7.626;2023-03-20T12:38:41;101255.47;;;11.57;91.42
26775;BME280;14362;51.902;7.626;2023-03-20T12:42:57;101257.50;;;11.51;97.37
26775;BME280;14362;51.902;7.626;2023-03-20T12:47:15;101258.47;;;11.25;99.22
26775;BME280;14362;51.902;7.626;2023-03-20T12:51:22;101262.47;;;11.32;100.00
26775;BME280;14362;51.902;7.626;2023-03-20T12:55:35;101250.53;;;11.18;100.00
26775;BME280;14362;51.902;7.626;2023-03-20T12:59:52;101256.66;;;11.07;100.00
26775;BME280;14362;51.902;7.626;2023-03-20T13:04:19;101256.72;;;10.94;100.00
26775;BME280;14362;51.902;7.626;2023-03-20T13:08:41;101260.59;;;10.84;100.00
26775;BME280;14362;51.902;7.626;2023-03-20T13:12:53;101260.69;;;10.79;100.00
26775;BME280;14362;51.902;7.626;2023-03-20T13:17:02;101262.25;;;10.72;100.00
26775;BME280;14362;51.902;7.626;2023-03-20T13:21:08;101258.97;;;10.56;100.00
26775;BME280;14362;51.902;7.626;2023-03-20T13:25:21;101262.97;;;10.64;100.00
26775;BME280;14362;51.902;7.626;2023-03-20T13:29:27;101251.63;;;10.60;100.00
26775;BME280;14362;51.902;7.626;2023-03-20T13:33:42;101248.41;;;10.67;100.00
26775;BME280;14362;51.902;7.626;2023-03-20T13:37:50;101249.66;;;10.61;100.00
26775;BME280;14362;51.902;7.626;2023-03-20T13:41:53;101238.00;;;10.59;100.00
26775;BME280;14362;51.902;7.626;2023-03-20T13:46:00;101233.69;;;10.53;100.00
26775;BME280;14362;51.902;7.626;2023-03-20T13:50:18;101235.13;;;10.50;100.00
26775;BME280;14362;51.902;7.626;2023-03-20T13:54:38;101226.88;;;10.45;100.00
26775;BME280;14362;51.902;7.626;2023-03-20T14:03:26;101222.31;;;10.49;100.00
26775;BME280;14362;51.902;7.626;2023-03-20T14:07:32;101212.31;;;10.48;100.00
26775;BME280;14362;51.902;7.626;2023-03-20T14:11:35;101216.03;;;10.57;100.00
26775;BME280;14362;51.902;7.626;2023-03-20T14:15:39;101214.38;;;10.56;100.00
26775;BME280;14362;51.902;7.626;2023-03-20T14:19:45;101207.56;;;10.49;100.00
26775;BME280;14362;51.902;7.626;2023-03-20T14:23:50;101208.19;;;10.46;100.00
26775;BME280;14362;51.902;7.626;2023-03-20T14:27:58;101203.22;;;10.43;100.00
26775;BME280;14362;51.902;7.626;2023-03-20T14:32:21;101201.25;;;10.57;100.00
26775;BME280;14362;51.902;7.626;2023-03-20T14:36:27;101191.47;;;10.46;100.00
26775;BME280;14362;51.902;7.626;2023-03-20T14:40:33;101183.78;;;10.65;100.00
26775;BME280;14362;51.902;7.626;2023-03-20T14:44:49;101182.47;;;10.62;100.00
26775;BME280;14362;51.902;7.626;2023-03-20T14:48:53;101186.47;;;10.70;100.00
26775;BME280;14362;51.902;7.626;2023-03-20T14:53:07;101179.31;;;10.77;100.00
26775;BME280;14362;51.902;7.626;2023-03-20T14:57:18;101184.97;;;10.86;100.00
26775;BME280;14362;51.902;7.626;2023-03-20T15:01:42;101183.56;;;10.75;100.00
26775;BME280;14362;51.902;7.626;2023-03-20T15:05:45;101188.75;;;10.54;100.00
26775;BME280;14362;51.902;7.626;2023-03-20T15:09:49;101191.38;;;10.37;100.00
26775;BME280;14362;51.902;7.626;2023-03-20T15:13:53;101182.59;;;10.30;100.00
26775;BME280;14362;51.902;7.626;2023-03-20T15:18:02;101179.09;;;10.25;100.00
26775;BME280;14362;51.902;7.626;2023-03-20T15:22:13;101169.53;;;10.18;100.00
26775;BME280;14362;51.902;7.626;2023-03-20T15:26:17;101170.75;;;10.25;100.00
26775;BME280;14362;51.902;7.626;2023-03-20T15:30:21;101167.16;;;10.24;100.00
26775;BME280;14362;51.902;7.626;2023-03-20T15:34:25;101171.38;;;10.22;100.00
26775;BME280;14362;51.902;7.626;2023-03-20T15:38:29;101176.22;;;10.17;100.00
26775;BME280;14362;51.902;7.626;2023-03-20T15:42:33;101175.19;;;10.13;100.00
26775;BME280;14362;51.902;7.626;2023-03-20T15:46:36;101172.13;;;10.01;100.00
26775;BME280;14362;51.902;7.626;2023-03-20T15:50:38;101164.09;;;9.99;100.00
26775;BME280;14362;51.902;7.626;2023-03-20T15:54:41;101177.56;;;9.92;100.00
26775;BME280;14362;51.902;7.626;2023-03-20T15:58:43;101175.72;;;9.88;100.00
26775;BME280;14362;51.902;7.626;2023-03-20T16:02:47;101175.59;;;9.79;100.00
26775;BME280;14362;51.902;7.626;2023-03-20T16:06:51;101168.88;;;9.67;100.00
26775;BME280;14362;51.902;7.626;2023-03-20T16:10:55;101168.16;;;9.61;100.00
26775;BME280;14362;51.902;7.626;2023-03-20T16:14:57;101166.69;;;9.50;100.00
26775;BME280;14362;51.902;7.626;2023-03-20T16:19:01;101166.91;;;9.40;100.00
26775;BME280;14362;51.902;7.626;2023-03-20T16:23:05;101165.25;;;9.39;100.00
26775;BME280;14362;51.902;7.626;2023-03-20T16:27:07;101178.44;;;9.34;100.00
26775;BME280;14362;51.902;7.626;2023-03-20T16:31:13;101171.81;;;9.30;100.00
26775;BME280;14362;51.902;7.626;2023-03-20T16:35:20;101179.94;;;9.26;100.00
26775;BME280;14362;51.902;7.626;2023-03-20T16:39:24;101190.75;;;9.28;100.00
26775;BME280;14362;51.902;7.626;2023-03-20T16:43:30;101180.03;;;9.21;100.00
26775;BME280;14362;51.902;7.626;2023-03-20T16:47:35;101184.47;;;9.22;100.00
26775;BME280;14362;51.902;7.626;2023-03-20T16:51:42;101183.72;;;9.17;100.00
26775;BME280;14362;51.902;7.626;2023-03-20T16:55:45;101186.22;;;9.18;100.00
26775;BME280;14362;51.902;7.626;2023-03-20T16:59:47;101183.09;;;9.20;100.00
26775;BME280;14362;51.902;7.626;2023-03-20T17:03:52;101175.16;;;9.13;100.00
26775;BME280;14362;51.902;7.626;2023-03-20T17:08:02;101176.38;;;9.08;100.00
26775;BME280;14362;51.902;7.626;2023-03-20T17:12:13;101169.78;;;9.04;100.00
26775;BME280;14362;51.902;7.626;2023-03-20T17:16:18;101177.34;;;8.98;100.00
26775;BME280;14362;51.902;7.626;2023-03-20T17:20:22;101163.03;;;8.91;100.00
26775;BME280;14362;51.902;7.626;2023-03-20T17:24:26;101160.84;;;8.88;100.00
26775;BME280;14362;51.902;7.626;2023-03-20T17:28:33;101155.91;;;8.85;100.00
26775;BME280;14362;51.902;7.626;2023-03-20T17:32:35;101164.03;;;8.82;100.00
26775;BME280;14362;51.902;7.626;2023-03-20T17:36:36;101161.31;;;8.77;100.00
26775;BME280;14362;51.902;7.626;2023-03-20T17:40:39;101157.50;;;8.73;100.00
26775;BME280;14362;51.902;7.626;2023-03-20T17:44:40;101167.19;;;8.75;100.00
26775;BME280;14362;51.902;7.626;2023-03-20T17:48:42;101163.38;;;8.71;100.00
26775;BME280;14362;51.902;7.626;2023-03-20T17:52:43;101164.78;;;8.69;100.00
26775;BME280;14362;51.902;7.626;2023-03-20T17:56:46;101173.09;;;8.69;100.00
26775;BME280;14362;51.902;7.626;2023-03-20T18:00:48;101181.75;;;8.67;100.00
26775;BME280;14362;51.902;7.626;2023-03-20T18:04:50;101181.97;;;8.71;100.00
26775;BME280;14362;51.902;7.626;2023-03-20T18:08:51;101184.84;;;8.66;100.00
26775;BME280;14362;51.902;7.626;2023-03-20T18:12:54;101184.22;;;8.69;100.00
26775;BME280;14362;51.902;7.626;2023-03-20T18:16:55;101190.41;;;8.66;100.00
26775;BME280;14362;51.902;7.626;2023-03-20T18:20:57;101191.22;;;8.66;100.00
26775;BME280;14362;51.902;7.626;2023-03-20T18:24:58;101191.75;;;8.68;100.00
26775;BME280;14362;51.902;7.626;2023-03-20T18:29:01;101195.59;;;8.72;100.00
26775;BME280;14362;51.902;7.626;2023-03-20T18:33:03;101196.41;;;8.73;100.00
26775;BME280;14362;51.902;7.626;2023-03-20T18:37:07;101183.09;;;8.70;100.00
26775;BME280;14362;51.902;7.626;2023-03-20T18:41:10;101185.06;;;8.69;100.00
26775;BME280;14362;51.902;7.626;2023-03-20T18:45:13;101178.91;;;8.72;100.00
26775;BME280;14362;51.902;7.626;2023-03-20T18:49:15;101181.69;;;8.72;100.00
26775;BME280;14362;51.902;7.626;2023-03-20T18:53:17;101182.50;;;8.73;100.00
26775;BME280;14362;51.902;7.626;2023-03-20T18:57:19;101180.56;;;8.73;100.00
26775;BME280;14362;51.902;7.626;2023-03-20T19:01:21;101175.53;;;8.75;100.00
26775;BME280;14362;51.902;7.626;2023-03-20T19:05:25;101170.78;;;8.76;100.00
26775;BME280;14362;51.902;7.626;2023-03-20T19:09:26;101173.78;;;8.79;100.00
26775;BME280;14362;51.902;7.626;2023-03-20T19:13:28;101173.78;;;8.79;100.00
26775;BME280;14362;51.902;7.626;2023-03-20T19:17:30;101172.66;;;8.80;100.00
26775;BME280;14362;51.902;7.626;2023-03-20T19:21:33;101177.09;;;8.81;100.00
26775;BME280;14362;51.902;7.626;2023-03-20T19:25:35;101172.91;;;8.84;100.00
26775;BME280;14362;51.902;7.626;2023-03-20T19:29:37;101175.69;;;8.84;100.00
26775;BME280;14362;51.902;7.626;2023-03-20T19:33:40;101170.13;;;8.84;100.00
26775;BME280;14362;51.902;7.626;2023-03-20T19:37:41;101165.09;;;8.86;100.00
26775;BME280;14362;51.902;7.626;2023-03-20T19:41:43;101168.34;;;8.88;100.00
26775;BME280;14362;51.902;7.626;2023-03-20T19:45:45;101169.19;;;8.88;100.00
26775;BME280;14362;51.902;7.626;2023-03-20T19:49:47;101162.00;;;8.87;100.00
26775;BME280;14362;51.902;7.626;2023-03-20T19:53:49;101164.44;;;8.89;100.00
26775;BME280;14362;51.902;7.626;2023-03-20T19:57:50;101154.47;;;8.88;100.00
26775;BME280;14362;51.902;7.626;2023-03-20T20:01:53;101165.81;;;8.91;100.00
26775;BME280;14362;51.902;7.626;2023-03-20T20:05:56;101152.13;;;8.95;100.00
26775;BME280;14362;51.902;7.626;2023-03-20T20:09:59;101158.00;;;8.93;100.00
26775;BME280;14362;51.902;7.626;2023-03-20T20:14:00;101153.03;;;8.90;100.00
26775;BME280;14362;51.902;7.626;2023-03-20T20:18:01;101142.75;;;8.91;100.00
26775;BME280;14362;51.902;7.626;2023-03-20T20:22:04;101139.88;;;8.96;100.00
26775;BME280;14362;51.902;7.626;2023-03-20T20:26:06;101138.44;;;8.98;100.00
26775;BME280;14362;51.902;7.626;2023-03-20T20:30:11;101136.50;;;8.99;100.00
26775;BME280;14362;51.902;7.626;2023-03-20T20:34:13;101126.72;;;9.01;100.00
26775;BME280;14362;51.902;7.626;2023-03-20T20:38:16;101133.13;;;9.02;100.00
26775;BME280;14362;51.902;7.626;2023-03-20T20:42:18;101130.00;;;9.03;100.00
26775;BME280;14362;51.902;7.626;2023-03-20T20:46:20;101121.69;;;9.03;100.00
26775;BME280;14362;51.902;7.626;2023-03-20T20:50:23;101127.44;;;9.07;100.00
26775;BME280;14362;51.902;7.626;2023-03-20T20:54:27;101121.88;;;9.07;100.00
26775;BME280;14362;51.902;7.626;2023-03-20T20:58:28;101125.19;;;9.09;100.00
26775;BME280;14362;51.902;7.626;2023-03-20T21:02:31;101117.88;;;9.13;100.00
26775;BME280;14362;51.902;7.626;2023-03-20T21:06:33;101122.84;;;9.15;100.00
26775;BME280;14362;51.902;7.626;2023-03-20T21:10:36;101118.31;;;9.19;100.00
26775;BME280;14362;51.902;7.626;2023-03-20T21:14:37;101126.59;;;9.24;100.00
26775;BME280;14362;51.902;7.626;2023-03-20T21:18:39;101116.78;;;9.27;100.00
26775;BME280;14362;51.902;7.626;2023-03-20T21:22:40;101117.06;;;9.25;100.00
26775;BME280;14362;51.902;7.626;2023-03-20T21:26:43;101119.25;;;9.28;100.00
26775;BME280;14362;51.902;7.626;2023-03-20T21:30:45;101117.91;;;9.26;100.00